sensor_id;sensor_type;location;lat;lon;timestamp;temperature;humidity
11983;DHT22;72623;51.184;7.176;2024-03-23T00:54:47;8.60;99.90
11983;DHT22;72623;51.184;7.176;2024-03-23T00:57:13;8.60;99.90
11983;DHT22;72623;51.184;7.176;2024-03-23T00:59:40;8.50;99.90
11983;DHT22;72623;51.184;7.176;2024-03-23T01:02:05;8.50;99.90
11983;DHT22;72623;51.184;7.176;2024-03-23T01:04:32;8.50;99.90
11983;DHT22;72623;51.184;7.176;2024-03-23T01:06:58;8.30;99.90
11983;DHT22;72623;51.184;7.176;2024-03-23T01:09:25;8.20;99.90
11983;DHT22;72623;51.184;7.176;2024-03-23T01:11:50;8.20;99.90
11983;DHT22;72623;51.184;7.176;2024-03-23T01:14:17;8.20;99.90
11983;DHT22;72623;51.184;7.176;2024-03-23T01:16:43;8.10;99.90
11983;DHT22;72623;51.184;7.176;2024-03-23T01:19:11;8.10;99.90
11983;DHT22;72623;51.184;7.176;2024-03-23T01:21:37;8.00;99.90
11983;DHT22;72623;51.184;7.176;2024-03-23T01:24:04;7.90;99.90
11983;DHT22;72623;51.184;7.176;2024-03-23T01:26:29;7.80;99.90
11983;DHT22;72623;51.184;7.176;2024-03-23T01:28:56;7.70;99.90
11983;DHT22;72623;51.184;7.176;2024-03-23T01:31:22;7.80;99.90
11983;DHT22;72623;51.184;7.176;2024-03-23T01:33:48;7.80;99.90
11983;DHT22;72623;51.184;7.176;2024-03-23T01:36:14;7.70;99.90
11983;DHT22;72623;51.184;7.176;2024-03-23T01:38:41;7.70;99.90
11983;DHT22;72623;51.184;7.176;2024-03-23T01:41:06;7.50;99.90
11983;DHT22;72623;51.184;7.176;2024-03-23T01:43:33;7.50;99.90
11983;DHT22;72623;51.184;7.176;2024-03-23T01:46:05;7.50;99.90
11983;DHT22;72623;51.184;7.176;2024-03-23T01:48:31;7.50;99.90
11983;DHT22;72623;51.184;7.176;2024-03-23T01:50:57;7.70;99.90
11983;DHT22;72623;51.184;7.176;2024-03-23T01:53:25;7.70;99.90
11983;DHT22;72623;51.184;7.176;2024-03-23T01:55:51;7.70;99.90
11983;DHT22;72623;51.184;7.176;2024-03-23T01:58:18;7.80;99.90
11983;DHT22;72623;51.184;7.176;2024-03-23T02:00:43;7.80;99.90
11983;DHT22;72623;51.184;7.176;2024-03-23T02:03:23;7.70;99.90
11983;DHT22;72623;51.184;7.176;2024-03-23T02:05:49;7.70;99.90
11983;DHT22;72623;51.184;7.176;2024-03-23T02:08:23;7.70;99.90
11983;DHT22;72623;51.184;7.176;2024-03-23T02:10:49;7.50;99.90
11983;DHT22;72623;51.184;7.176;2024-03-23T02:13:18;7.50;99.90
11983;DHT22;72623;51.184;7.176;2024-03-23T02:15:44;7.50;99.90
11983;DHT22;72623;51.184;7.176;2024-03-23T02:18:11;7.40;99.90
11983;DHT22;72623;51.184;7.176;2024-03-23T02:20:37;7.50;99.90
11983;DHT22;72623;51.184;7.176;2024-03-23T02:23:05;7.40;99.90
11983;DHT22;72623;51.184;7.176;2024-03-23T02:25:34;7.10;99.90
11983;DHT22;72623;51.184;7.176;2024-03-23T02:28:01;7.00;99.90
11983;DHT22;72623;51.184;7.176;2024-03-23T02:30:27;7.00;99.90
11983;DHT22;72623;51.184;7.176;2024-03-23T02:32:53;6.90;99.90
11983;DHT22;72623;51.184;7.176;2024-03-23T02:35:19;6.90;99.90
11983;DHT22;72623;51.184;7.176;2024-03-23T02:37:46;6.90;99.90
11983;DHT22;72623;51.184;7.176;2024-03-23T02:40:12;7.00;99.90
11983;DHT22;72623;51.184;7.176;2024-03-23T02:42:39;7.10;99.90
11983;DHT22;72623;51.184;7.176;2024-03-23T02:45:05;7.20;99.90
11983;DHT22;72623;51.184;7.176;2024-03-23T02:47:32;7.30;99.90
11983;DHT22;72623;51.184;7.176;2024-03-23T02:49:58;7.40;99.90
11983;DHT22;72623;51.184;7.176;2024-03-23T02:52:25;7.40;99.90
11983;DHT22;72623;51.184;7.176;2024-03-23T02:54:50;7.20;99.90
11983;DHT22;72623;51.184;7.176;2024-03-23T02:57:17;7.20;99.90
11983;DHT22;72623;51.184;7.176;2024-03-23T02:59:43;7.30;99.90
11983;DHT22;72623;51.184;7.176;2024-03-23T03:02:11;7.40;99.90
11983;DHT22;72623;51.184;7.176;2024-03-23T03:04:36;7.40;99.90
11983;DHT22;72623;51.184;7.176;2024-03-23T03:07:03;7.50;99.90
11983;DHT22;72623;51.184;7.176;2024-03-23T03:09:29;7.50;99.90
11983;DHT22;72623;51.184;7.176;2024-03-23T03:11:56;7.50;99.90
11983;DHT22;72623;51.184;7.176;2024-03-23T03:14:21;7.50;99.90
11983;DHT22;72623;51.184;7.176;2024-03-23T03:16:48;7.50;99.90
11983;DHT22;72623;51.184;7.176;2024-03-23T03:19:14;7.30;99.90
11983;DHT22;72623;51.184;7.176;2024-03-23T03:21:42;7.20;99.90
11983;DHT22;72623;51.184;7.176;2024-03-23T03:24:07;7.20;99.90
11983;DHT22;72623;51.184;7.176;2024-03-23T03:26:34;7.30;99.90
11983;DHT22;72623;51.184;7.176;2024-03-23T03:29:00;7.20;99.90
11983;DHT22;72623;51.184;7.176;2024-03-23T03:31:27;7.10;99.90
11983;DHT22;72623;51.184;7.176;2024-03-23T03:33:52;7.00;99.90
11983;DHT22;72623;51.184;7.176;2024-03-23T03:36:19;7.10;99.90
11983;DHT22;72623;51.184;7.176;2024-03-23T03:38:45;7.20;99.90
11983;DHT22;72623;51.184;7.176;2024-03-23T03:41:12;7.30;99.90
11983;DHT22;72623;51.184;7.176;2024-03-23T03:43:37;7.20;99.90
11983;DHT22;72623;51.184;7.176;2024-03-23T03:46:04;7.20;99.90
11983;DHT22;72623;51.184;7.176;2024-03-23T03:48:30;7.20;99.90
11983;DHT22;72623;51.184;7.176;2024-03-23T03:50:56;7.20;99.90
11983;DHT22;72623;51.184;7.176;2024-03-23T03:53:22;7.20;99.90
11983;DHT22;72623;51.184;7.176;2024-03-23T03:55:49;7.10;99.90
11983;DHT22;72623;51.184;7.176;2024-03-23T03:58:15;7.10;99.90
11983;DHT22;72623;51.184;7.176;2024-03-23T04:00:41;7.10;99.90
11983;DHT22;72623;51.184;7.176;2024-03-23T04:03:07;7.20;99.90
11983;DHT22;72623;51.184;7.176;2024-03-23T04:05:34;7.20;99.90
11983;DHT22;72623;51.184;7.176;2024-03-23T04:07:59;7.20;99.90
11983;DHT22;72623;51.184;7.176;2024-03-23T04:10:26;7.20;99.90
11983;DHT22;72623;51.184;7.176;2024-03-23T04:12:52;7.10;99.90
11983;DHT22;72623;51.184;7.176;2024-03-23T04:15:20;7.20;99.90
11983;DHT22;72623;51.184;7.176;2024-03-23T04:17:46;7.30;99.90
11983;DHT22;72623;51.184;7.176;2024-03-23T04:20:13;7.30;99.90
11983;DHT22;72623;51.184;7.176;2024-03-23T04:22:42;7.30;99.90
11983;DHT22;72623;51.184;7.176;2024-03-23T04:25:09;7.30;99.90
11983;DHT22;72623;51.184;7.176;2024-03-23T04:27:39;7.30;99.90
11983;DHT22;72623;51.184;7.176;2024-03-23T04:30:06;7.30;99.90
11983;DHT22;72623;51.184;7.176;2024-03-23T04:32:51;7.30;99.90
11983;DHT22;72623;51.184;7.176;2024-03-23T04:35:31;7.30;99.90
11983;DHT22;72623;51.184;7.176;2024-03-23T04:37:56;7.30;99.90
11983;DHT22;72623;51.184;7.176;2024-03-23T04:40:27;7.30;99.90
11983;DHT22;72623;51.184;7.176;2024-03-23T04:42:59;7.20;99.90
11983;DHT22;72623;51.184;7.176;2024-03-23T04:45:26;7.20;99.90
11983;DHT22;72623;51.184;7.176;2024-03-23T04:47:56;7.20;99.90
11983;DHT22;72623;51.184;7.176;2024-03-23T04:50:23;7.20;99.90
11983;DHT22;72623;51.184;7.176;2024-03-23T04:52:50;7.20;99.90
11983;DHT22;72623;51.184;7.176;2024-03-23T04:55:16;7.20;99.90
11983;DHT22;72623;51.184;7.176;2024-03-23T04:57:45;7.10;99.90
11983;DHT22;72623;51.184;7.176;2024-03-23T05:00:12;7.20;99.90
11983;DHT22;72623;51.184;7.176;2024-03-23T05:02:43;7.10;99.90
11983;DHT22;72623;51.184;7.176;2024-03-23T05:05:10;7.20;99.90
11983;DHT22;72623;51.184;7.176;2024-03-23T05:07:36;7.20;99.90
11983;DHT22;72623;51.184;7.176;2024-03-23T05:10:09;7.10;99.90
11983;DHT22;72623;51.184;7.176;2024-03-23T05:12:40;7.20;99.90
11983;DHT22;72623;51.184;7.176;2024-03-23T05:15:06;7.20;99.90
11983;DHT22;72623;51.184;7.176;2024-03-23T05:17:33;7.20;99.90
11983;DHT22;72623;51.184;7.176;2024-03-23T05:20:00;7.20;99.90
11983;DHT22;72623;51.184;7.176;2024-03-23T05:22:26;7.20;99.90
11983;DHT22;72623;51.184;7.176;2024-03-23T05:24:53;7.30;99.90
11983;DHT22;72623;51.184;7.176;2024-03-23T05:27:19;7.30;99.90
11983;DHT22;72623;51.184;7.176;2024-03-23T05:29:46;7.30;99.90
11983;DHT22;72623;51.184;7.176;2024-03-23T05:32:12;7.20;99.90
11983;DHT22;72623;51.184;7.176;2024-03-23T05:34:39;7.30;99.90
11983;DHT22;72623;51.184;7.176;2024-03-23T05:37:05;7.30;99.90
11983;DHT22;72623;51.184;7.176;2024-03-23T05:39:32;7.30;99.90
11983;DHT22;72623;51.184;7.176;2024-03-23T05:41:57;7.30;99.90
11983;DHT22;72623;51.184;7.176;2024-03-23T05:44:24;7.30;99.90
11983;DHT22;72623;51.184;7.176;2024-03-23T05:46:50;7.20;99.90
11983;DHT22;72623;51.184;7.176;2024-03-23T05:49:16;7.20;99.90
11983;DHT22;72623;51.184;7.176;2024-03-23T05:51:45;7.20;99.90
11983;DHT22;72623;51.184;7.176;2024-03-23T05:54:21;7.20;99.90
11983;DHT22;72623;51.184;7.176;2024-03-23T05:56:47;7.10;99.90
11983;DHT22;72623;51.184;7.176;2024-03-23T05:59:13;7.10;99.90
11983;DHT22;72623;51.184;7.176;2024-03-23T06:01:47;7.10;99.90
11983;DHT22;72623;51.184;7.176;2024-03-23T06:04:14;7.10;99.90
11983;DHT22;72623;51.184;7.176;2024-03-23T06:06:40;7.00;99.90
11983;DHT22;72623;51.184;7.176;2024-03-23T06:09:08;6.90;99.90
11983;DHT22;72623;51.184;7.176;2024-03-23T06:11:33;6.90;99.90
11983;DHT22;72623;51.184;7.176;2024-03-23T06:14:00;6.90;99.90
11983;DHT22;72623;51.184;7.176;2024-03-23T06:16:26;6.90;99.90
11983;DHT22;72623;51.184;7.176;2024-03-23T06:18:53;6.90;99.90
11983;DHT22;72623;51.184;7.176;2024-03-23T06:21:20;7.00;99.90
11983;DHT22;72623;51.184;7.176;2024-03-23T06:23:52;7.00;99.90
11983;DHT22;72623;51.184;7.176;2024-03-23T06:26:19;7.00;99.90
11983;DHT22;72623;51.184;7.176;2024-03-23T06:28:47;6.90;99.90
11983;DHT22;72623;51.184;7.176;2024-03-23T06:31:19;6.90;99.90
11983;DHT22;72623;51.184;7.176;2024-03-23T06:33:46;6.90;99.90
11983;DHT22;72623;51.184;7.176;2024-03-23T06:36:12;6.80;99.90
11983;DHT22;72623;51.184;7.176;2024-03-23T06:38:38;6.80;99.90
11983;DHT22;72623;51.184;7.176;2024-03-23T06:41:05;6.70;99.90
11983;DHT22;72623;51.184;7.176;2024-03-23T06:43:32;6.70;99.90
11983;DHT22;72623;51.184;7.176;2024-03-23T06:45:58;6.70;99.90
11983;DHT22;72623;51.184;7.176;2024-03-23T06:48:25;6.80;99.90
11983;DHT22;72623;51.184;7.176;2024-03-23T06:50:56;6.80;99.90
11983;DHT22;72623;51.184;7.176;2024-03-23T06:53:23;6.80;99.90
11983;DHT22;72623;51.184;7.176;2024-03-23T06:55:53;6.80;99.90
11983;DHT22;72623;51.184;7.176;2024-03-23T06:58:21;6.80;99.90
11983;DHT22;72623;51.184;7.176;2024-03-23T07:00:47;6.70;99.90
11983;DHT22;72623;51.184;7.176;2024-03-23T07:03:16;6.80;99.90
11983;DHT22;72623;51.184;7.176;2024-03-23T07:05:41;6.80;99.90
11983;DHT22;72623;51.184;7.176;2024-03-23T07:08:08;6.80;99.90
11983;DHT22;72623;51.184;7.176;2024-03-23T07:10:44;6.90;99.90
11983;DHT22;72623;51.184;7.176;2024-03-23T07:13:11;6.90;99.90
11983;DHT22;72623;51.184;7.176;2024-03-23T07:15:37;7.00;99.90
11983;DHT22;72623;51.184;7.176;2024-03-23T07:18:04;7.00;99.90
11983;DHT22;72623;51.184;7.176;2024-03-23T07:20:30;7.10;99.90
11983;DHT22;72623;51.184;7.176;2024-03-23T07:22:57;7.10;99.90
11983;DHT22;72623;51.184;7.176;2024-03-23T07:25:23;7.10;99.90
11983;DHT22;72623;51.184;7.176;2024-03-23T07:27:50;7.20;99.90
11983;DHT22;72623;51.184;7.176;2024-03-23T07:30:16;7.40;99.90
11983;DHT22;72623;51.184;7.176;2024-03-23T07:32:44;7.40;99.90
11983;DHT22;72623;51.184;7.176;2024-03-23T07:35:10;7.40;99.90
11983;DHT22;72623;51.184;7.176;2024-03-23T07:37:37;7.40;99.90
11983;DHT22;72623;51.184;7.176;2024-03-23T07:40:03;7.30;99.90
11983;DHT22;72623;51.184;7.176;2024-03-23T07:42:29;7.30;99.90
11983;DHT22;72623;51.184;7.176;2024-03-23T07:44:55;7.30;99.90
11983;DHT22;72623;51.184;7.176;2024-03-23T07:47:22;7.50;99.90
11983;DHT22;72623;51.184;7.176;2024-03-23T07:49:48;7.60;99.90
11983;DHT22;72623;51.184;7.176;2024-03-23T07:52:15;7.50;99.90
11983;DHT22;72623;51.184;7.176;2024-03-23T07:54:40;7.50;99.90
11983;DHT22;72623;51.184;7.176;2024-03-23T07:57:13;7.60;99.90
11983;DHT22;72623;51.184;7.176;2024-03-23T07:59:38;7.60;99.90
11983;DHT22;72623;51.184;7.176;2024-03-23T08:02:05;7.70;99.90
11983;DHT22;72623;51.184;7.176;2024-03-23T08:04:36;7.70;99.90
11983;DHT22;72623;51.184;7.176;2024-03-23T08:07:03;7.80;99.90
11983;DHT22;72623;51.184;7.176;2024-03-23T08:09:29;7.80;99.90
11983;DHT22;72623;51.184;7.176;2024-03-23T08:11:59;7.90;99.90
11983;DHT22;72623;51.184;7.176;2024-03-23T08:14:25;7.90;99.90
11983;DHT22;72623;51.184;7.176;2024-03-23T08:16:54;8.00;99.90
11983;DHT22;72623;51.184;7.176;2024-03-23T08:19:20;8.10;99.90
11983;DHT22;72623;51.184;7.176;2024-03-23T08:21:47;8.10;99.90
11983;DHT22;72623;51.184;7.176;2024-03-23T08:24:12;8.00;99.90
11983;DHT22;72623;51.184;7.176;2024-03-23T08:26:42;8.00;99.90
11983;DHT22;72623;51.184;7.176;2024-03-23T08:29:08;8.10;99.90
11983;DHT22;72623;51.184;7.176;2024-03-23T08:31:35;8.30;99.90
11983;DHT22;72623;51.184;7.176;2024-03-23T08:34:01;8.30;99.90
11983;DHT22;72623;51.184;7.176;2024-03-23T08:36:28;8.40;99.90
11983;DHT22;72623;51.184;7.176;2024-03-23T08:38:54;8.50;99.90
11983;DHT22;72623;51.184;7.176;2024-03-23T08:41:21;8.80;99.90
11983;DHT22;72623;51.184;7.176;2024-03-23T08:43:47;9.10;99.90
11983;DHT22;72623;51.184;7.176;2024-03-23T08:46:15;9.30;99.90
11983;DHT22;72623;51.184;7.176;2024-03-23T08:48:42;9.50;99.90
11983;DHT22;72623;51.184;7.176;2024-03-23T08:51:14;9.80;99.90
11983;DHT22;72623;51.184;7.176;2024-03-23T08:53:42;9.90;99.90
11983;DHT22;72623;51.184;7.176;2024-03-23T08:56:08;9.70;99.90
11983;DHT22;72623;51.184;7.176;2024-03-23T08:58:39;9.60;99.90
11983;DHT22;72623;51.184;7.176;2024-03-23T09:01:09;9.40;99.90
11983;DHT22;72623;51.184;7.176;2024-03-23T09:03:37;9.30;99.90
11983;DHT22;72623;51.184;7.176;2024-03-23T09:06:10;9.20;99.90
11983;DHT22;72623;51.184;7.176;2024-03-23T09:08:37;9.20;99.90
11983;DHT22;72623;51.184;7.176;2024-03-23T09:11:07;9.10;99.90
11983;DHT22;72623;51.184;7.176;2024-03-23T09:13:35;9.00;99.90
11983;DHT22;72623;51.184;7.176;2024-03-23T09:16:02;9.10;99.90
11983;DHT22;72623;51.184;7.176;2024-03-23T09:18:32;9.20;99.90
11983;DHT22;72623;51.184;7.176;2024-03-23T09:21:04;9.40;99.90
11983;DHT22;72623;51.184;7.176;2024-03-23T09:23:37;9.40;99.90
11983;DHT22;72623;51.184;7.176;2024-03-23T09:26:14;9.30;99.90
11983;DHT22;72623;51.184;7.176;2024-03-23T09:28:41;9.10;99.90
11983;DHT22;72623;51.184;7.176;2024-03-23T09:31:08;9.00;99.90
11983;DHT22;72623;51.184;7.176;2024-03-23T09:33:35;8.80;99.90
11983;DHT22;72623;51.184;7.176;2024-03-23T09:36:05;8.60;99.90
11983;DHT22;72623;51.184;7.176;2024-03-23T09:38:32;8.50;99.90
11983;DHT22;72623;51.184;7.176;2024-03-23T09:40:58;8.50;99.90
11983;DHT22;72623;51.184;7.176;2024-03-23T09:43:25;8.60;99.90
11983;DHT22;72623;51.184;7.176;2024-03-23T09:45:52;8.70;99.90
11983;DHT22;72623;51.184;7.176;2024-03-23T09:48:22;8.70;99.90
11983;DHT22;72623;51.184;7.176;2024-03-23T09:50:48;8.70;99.90
11983;DHT22;72623;51.184;7.176;2024-03-23T09:53:29;8.70;99.90
11983;DHT22;72623;51.184;7.176;2024-03-23T09:55:55;8.80;99.90
11983;DHT22;72623;51.184;7.176;2024-03-23T09:58:23;8.90;99.90
11983;DHT22;72623;51.184;7.176;2024-03-23T10:00:49;8.90;99.90
11983;DHT22;72623;51.184;7.176;2024-03-23T10:03:16;8.90;99.90
11983;DHT22;72623;51.184;7.176;2024-03-23T10:05:42;8.90;99.90
11983;DHT22;72623;51.184;7.176;2024-03-23T10:10:43;8.80;99.90
11983;DHT22;72623;51.184;7.176;2024-03-23T10:13:31;8.70;99.90
11983;DHT22;72623;51.184;7.176;2024-03-23T10:15:58;8.50;99.90
11983;DHT22;72623;51.184;7.176;2024-03-23T10:18:29;8.50;99.90
11983;DHT22;72623;51.184;7.176;2024-03-23T10:21:09;8.50;99.90
11983;DHT22;72623;51.184;7.176;2024-03-23T10:23:40;8.50;99.90
11983;DHT22;72623;51.184;7.176;2024-03-23T10:26:23;8.70;99.90
11983;DHT22;72623;51.184;7.176;2024-03-23T10:31:20;8.60;99.90
11983;DHT22;72623;51.184;7.176;2024-03-23T10:33:48;8.60;99.90
11983;DHT22;72623;51.184;7.176;2024-03-23T10:36:15;8.50;99.90
11983;DHT22;72623;51.184;7.176;2024-03-23T10:38:43;8.40;99.90
11983;DHT22;72623;51.184;7.176;2024-03-23T10:41:10;8.30;99.90
11983;DHT22;72623;51.184;7.176;2024-03-23T10:43:40;8.30;99.90
11983;DHT22;72623;51.184;7.176;2024-03-23T10:46:08;8.20;99.90
11983;DHT22;72623;51.184;7.176;2024-03-23T10:48:36;8.20;99.90
11983;DHT22;72623;51.184;7.176;2024-03-23T10:51:04;8.30;99.90
11983;DHT22;72623;51.184;7.176;2024-03-23T10:53:35;8.30;99.90
11983;DHT22;72623;51.184;7.176;2024-03-23T10:56:02;8.40;99.90
11983;DHT22;72623;51.184;7.176;2024-03-23T10:58:37;8.40;99.90
11983;DHT22;72623;51.184;7.176;2024-03-23T11:01:06;8.30;99.90
11983;DHT22;72623;51.184;7.176;2024-03-23T11:03:37;8.30;99.90
11983;DHT22;72623;51.184;7.176;2024-03-23T11:06:04;8.20;99.90
11983;DHT22;72623;51.184;7.176;2024-03-23T11:08:38;7.90;99.90
11983;DHT22;72623;51.184;7.176;2024-03-23T11:11:21;7.60;99.90
11983;DHT22;72623;51.184;7.176;2024-03-23T11:13:53;7.20;99.90
11983;DHT22;72623;51.184;7.176;2024-03-23T11:16:26;6.90;99.90
11983;DHT22;72623;51.184;7.176;2024-03-23T11:19:33;6.80;99.90
11983;DHT22;72623;51.184;7.176;2024-03-23T11:21:59;6.90;99.90
11983;DHT22;72623;51.184;7.176;2024-03-23T11:24:26;6.80;99.90
11983;DHT22;72623;51.184;7.176;2024-03-23T11:26:52;6.60;99.90
11983;DHT22;72623;51.184;7.176;2024-03-23T11:29:19;6.40;99.90
11983;DHT22;72623;51.184;7.176;2024-03-23T11:31:52;6.40;99.90
11983;DHT22;72623;51.184;7.176;2024-03-23T11:34:19;6.40;99.90
11983;DHT22;72623;51.184;7.176;2024-03-23T11:36:46;6.40;99.90
11983;DHT22;72623;51.184;7.176;2024-03-23T11:39:17;6.30;99.90
11983;DHT22;72623;51.184;7.176;2024-03-23T11:41:51;6.30;99.90
11983;DHT22;72623;51.184;7.176;2024-03-23T11:44:23;6.20;99.90
11983;DHT22;72623;51.184;7.176;2024-03-23T11:46:49;6.30;99.90
11983;DHT22;72623;51.184;7.176;2024-03-23T11:49:24;6.30;99.90
11983;DHT22;72623;51.184;7.176;2024-03-23T11:51:52;6.50;99.90
11983;DHT22;72623;51.184;7.176;2024-03-23T11:54:26;6.60;99.90
11983;DHT22;72623;51.184;7.176;2024-03-23T11:56:59;6.70;99.90
11983;DHT22;72623;51.184;7.176;2024-03-23T11:59:37;6.90;99.90
11983;DHT22;72623;51.184;7.176;2024-03-23T12:02:10;7.10;99.90
11983;DHT22;72623;51.184;7.176;2024-03-23T12:04:40;7.30;99.90
11983;DHT22;72623;51.184;7.176;2024-03-23T12:07:24;7.50;99.90
11983;DHT22;72623;51.184;7.176;2024-03-23T12:10:04;7.70;99.90
11983;DHT22;72623;51.184;7.176;2024-03-23T12:12:30;7.90;99.90
11983;DHT22;72623;51.184;7.176;2024-03-23T12:17:28;8.00;99.90
11983;DHT22;72623;51.184;7.176;2024-03-23T12:19:55;8.10;99.90
11983;DHT22;72623;51.184;7.176;2024-03-23T12:22:21;8.30;99.90
11983;DHT22;72623;51.184;7.176;2024-03-23T12:24:48;8.40;99.90
11983;DHT22;72623;51.184;7.176;2024-03-23T12:27:14;8.20;99.90
11983;DHT22;72623;51.184;7.176;2024-03-23T12:29:42;7.50;99.90
11983;DHT22;72623;51.184;7.176;2024-03-23T12:32:08;7.00;99.90
11983;DHT22;72623;51.184;7.176;2024-03-23T12:34:35;6.80;99.90
11983;DHT22;72623;51.184;7.176;2024-03-23T12:37:03;6.60;99.90
11983;DHT22;72623;51.184;7.176;2024-03-23T12:39:29;6.50;99.90
11983;DHT22;72623;51.184;7.176;2024-03-23T12:41:56;6.50;99.90
11983;DHT22;72623;51.184;7.176;2024-03-23T12:44:22;6.30;99.90
11983;DHT22;72623;51.184;7.176;2024-03-23T12:46:49;6.30;99.90
11983;DHT22;72623;51.184;7.176;2024-03-23T12:49:14;6.30;99.90
11983;DHT22;72623;51.184;7.176;2024-03-23T12:51:53;6.30;99.90
11983;DHT22;72623;51.184;7.176;2024-03-23T12:54:18;6.30;99.90
11983;DHT22;72623;51.184;7.176;2024-03-23T12:56:46;6.30;99.90
11983;DHT22;72623;51.184;7.176;2024-03-23T12:59:11;6.40;99.90
11983;DHT22;72623;51.184;7.176;2024-03-23T13:01:39;6.60;99.90
11983;DHT22;72623;51.184;7.176;2024-03-23T13:04:06;6.70;99.90
11983;DHT22;72623;51.184;7.176;2024-03-23T13:06:32;6.80;99.90
11983;DHT22;72623;51.184;7.176;2024-03-23T13:09:00;6.90;99.90
11983;DHT22;72623;51.184;7.176;2024-03-23T13:11:28;6.90;99.90
11983;DHT22;72623;51.184;7.176;2024-03-23T13:13:55;7.00;99.90
11983;DHT22;72623;51.184;7.176;2024-03-23T13:16:22;6.90;99.90
11983;DHT22;72623;51.184;7.176;2024-03-23T13:18:48;7.00;99.90
11983;DHT22;72623;51.184;7.176;2024-03-23T13:21:14;7.00;99.90
11983;DHT22;72623;51.184;7.176;2024-03-23T13:23:40;7.20;99.90
11983;DHT22;72623;51.184;7.176;2024-03-23T13:26:23;7.30;99.90
11983;DHT22;72623;51.184;7.176;2024-03-23T13:29:30;7.40;99.90
11983;DHT22;72623;51.184;7.176;2024-03-23T13:32:09;7.60;99.90
11983;DHT22;72623;51.184;7.176;2024-03-23T13:38:10;8.00;99.90
11983;DHT22;72623;51.184;7.176;2024-03-23T13:40:37;8.10;99.90
11983;DHT22;72623;51.184;7.176;2024-03-23T13:43:04;8.20;99.90
11983;DHT22;72623;51.184;7.176;2024-03-23T13:48:53;8.10;99.90
11983;DHT22;72623;51.184;7.176;2024-03-23T13:51:32;7.80;99.90
11983;DHT22;72623;51.184;7.176;2024-03-23T13:54:01;7.60;99.90
11983;DHT22;72623;51.184;7.176;2024-03-23T13:56:41;7.30;99.90
11983;DHT22;72623;51.184;7.176;2024-03-23T13:59:07;7.30;99.90
11983;DHT22;72623;51.184;7.176;2024-03-23T14:05:16;7.30;99.90
11983;DHT22;72623;51.184;7.176;2024-03-23T14:07:41;7.40;99.90
11983;DHT22;72623;51.184;7.176;2024-03-23T14:10:08;7.50;99.90
11983;DHT22;72623;51.184;7.176;2024-03-23T14:12:36;7.60;99.90
11983;DHT22;72623;51.184;7.176;2024-03-23T14:15:15;7.60;99.90
11983;DHT22;72623;51.184;7.176;2024-03-23T14:20:45;7.70;99.90
11983;DHT22;72623;51.184;7.176;2024-03-23T14:23:31;7.70;99.90
11983;DHT22;72623;51.184;7.176;2024-03-23T14:26:28;7.70;99.90
11983;DHT22;72623;51.184;7.176;2024-03-23T14:28:55;7.60;99.90
11983;DHT22;72623;51.184;7.176;2024-03-23T14:31:21;7.50;99.90
11983;DHT22;72623;51.184;7.176;2024-03-23T14:33:48;7.50;99.90
11983;DHT22;72623;51.184;7.176;2024-03-23T14:36:16;7.60;99.90
11983;DHT22;72623;51.184;7.176;2024-03-23T14:38:47;7.70;99.90
11983;DHT22;72623;51.184;7.176;2024-03-23T14:41:19;7.80;99.90
11983;DHT22;72623;51.184;7.176;2024-03-23T14:43:46;7.90;99.90
11983;DHT22;72623;51.184;7.176;2024-03-23T14:46:20;8.00;99.90
11983;DHT22;72623;51.184;7.176;2024-03-23T14:48:48;8.00;99.90
11983;DHT22;72623;51.184;7.176;2024-03-23T14:51:13;8.10;99.90
11983;DHT22;72623;51.184;7.176;2024-03-23T14:53:49;8.10;99.90
11983;DHT22;72623;51.184;7.176;2024-03-23T14:56:22;8.10;99.90
11983;DHT22;72623;51.184;7.176;2024-03-23T14:58:54;8.00;99.90
11983;DHT22;72623;51.184;7.176;2024-03-23T15:01:22;8.00;99.90
11983;DHT22;72623;51.184;7.176;2024-03-23T15:03:49;8.00;99.90
11983;DHT22;72623;51.184;7.176;2024-03-23T15:06:18;7.90;99.90
11983;DHT22;72623;51.184;7.176;2024-03-23T15:08:45;7.80;99.90
11983;DHT22;72623;51.184;7.176;2024-03-23T15:11:11;7.70;99.90
11983;DHT22;72623;51.184;7.176;2024-03-23T15:13:38;7.60;99.90
11983;DHT22;72623;51.184;7.176;2024-03-23T15:16:04;7.50;99.90
11983;DHT22;72623;51.184;7.176;2024-03-23T15:18:32;7.50;99.90
11983;DHT22;72623;51.184;7.176;2024-03-23T15:21:00;7.50;99.90
11983;DHT22;72623;51.184;7.176;2024-03-23T15:23:28;7.50;99.90
11983;DHT22;72623;51.184;7.176;2024-03-23T15:25:58;7.50;99.90
11983;DHT22;72623;51.184;7.176;2024-03-23T15:28:25;7.50;99.90
11983;DHT22;72623;51.184;7.176;2024-03-23T15:30:52;7.50;99.90
11983;DHT22;72623;51.184;7.176;2024-03-23T15:33:19;7.60;99.90
11983;DHT22;72623;51.184;7.176;2024-03-23T15:35:45;7.60;99.90
11983;DHT22;72623;51.184;7.176;2024-03-23T15:38:12;7.50;99.90
11983;DHT22;72623;51.184;7.176;2024-03-23T15:40:38;7.50;99.90
11983;DHT22;72623;51.184;7.176;2024-03-23T15:43:11;7.50;99.90
11983;DHT22;72623;51.184;7.176;2024-03-23T15:45:42;7.50;99.90
11983;DHT22;72623;51.184;7.176;2024-03-23T15:48:09;7.70;99.90
11983;DHT22;72623;51.184;7.176;2024-03-23T15:50:35;7.70;99.90
11983;DHT22;72623;51.184;7.176;2024-03-23T15:53:02;7.70;99.90
11983;DHT22;72623;51.184;7.176;2024-03-23T15:55:57;7.80;99.90
11983;DHT22;72623;51.184;7.176;2024-03-23T15:58:36;7.70;99.90
11983;DHT22;72623;51.184;7.176;2024-03-23T16:01:04;7.60;99.90
11983;DHT22;72623;51.184;7.176;2024-03-23T16:03:34;7.60;99.90
11983;DHT22;72623;51.184;7.176;2024-03-23T16:06:08;7.60;99.90
11983;DHT22;72623;51.184;7.176;2024-03-23T16:08:35;7.70;99.90
11983;DHT22;72623;51.184;7.176;2024-03-23T16:11:03;7.70;99.90
11983;DHT22;72623;51.184;7.176;2024-03-23T16:13:30;7.70;99.90
11983;DHT22;72623;51.184;7.176;2024-03-23T16:16:06;7.60;99.90
11983;DHT22;72623;51.184;7.176;2024-03-23T16:19:03;7.50;99.90
11983;DHT22;72623;51.184;7.176;2024-03-23T16:25:10;7.50;99.90
11983;DHT22;72623;51.184;7.176;2024-03-23T16:38:28;7.40;99.90
11983;DHT22;72623;51.184;7.176;2024-03-23T16:47:48;7.40;99.90
11983;DHT22;72623;51.184;7.176;2024-03-23T16:50:17;7.40;99.90
11983;DHT22;72623;51.184;7.176;2024-03-23T16:52:44;7.50;99.90
11983;DHT22;72623;51.184;7.176;2024-03-23T16:55:10;7.40;99.90
11983;DHT22;72623;51.184;7.176;2024-03-23T16:57:57;7.50;99.90
11983;DHT22;72623;51.184;7.176;2024-03-23T17:00:46;7.50;99.90
11983;DHT22;72623;51.184;7.176;2024-03-23T17:03:29;7.40;99.90
11983;DHT22;72623;51.184;7.176;2024-03-23T17:24:51;7.30;99.90
11983;DHT22;72623;51.184;7.176;2024-03-23T17:27:34;7.30;99.90
11983;DHT22;72623;51.184;7.176;2024-03-23T17:30:50;7.30;99.90
11983;DHT22;72623;51.184;7.176;2024-03-23T18:33:07;6.20;99.90
11983;DHT22;72623;51.184;7.176;2024-03-23T18:35:54;6.30;99.90
11983;DHT22;72623;51.184;7.176;2024-03-23T18:38:26;6.30;99.90
11983;DHT22;72623;51.184;7.176;2024-03-23T18:41:20;6.30;99.90
11983;DHT22;72623;51.184;7.176;2024-03-23T18:44:30;6.20;99.90
11983;DHT22;72623;51.184;7.176;2024-03-23T18:47:01;6.20;99.90
11983;DHT22;72623;51.184;7.176;2024-03-23T18:49:27;6.20;99.90
11983;DHT22;72623;51.184;7.176;2024-03-23T18:52:20;6.20;99.90